createdAt,value
2022-08-02T00:00:34.395Z,99.30
2022-08-02T00:03:01.187Z,99.40
2022-08-02T00:05:28.027Z,99.50
2022-08-02T00:07:54.878Z,99.90
2022-08-02T00:10:21.714Z,99.90
2022-08-02T00:12:48.528Z,99.90
2022-08-02T00:15:15.886Z,99.90
2022-08-02T00:17:44.230Z,99.90
2022-08-02T00:20:11.925Z,99.90
2022-08-02T00:22:38.865Z,99.90
2022-08-02T00:25:06.395Z,99.90
2022-08-02T00:27:33.182Z,99.90
2022-08-02T00:30:00.005Z,99.90
2022-08-02T00:32:27.008Z,99.90
2022-08-02T00:34:53.768Z,99.90
2022-08-02T00:37:20.628Z,99.90
2022-08-02T00:39:47.404Z,99.90
2022-08-02T00:42:15.675Z,99.90
2022-08-02T00:44:43.266Z,99.90
2022-08-02T00:47:10.161Z,99.90
2022-08-02T00:49:37.680Z,99.90
2022-08-02T00:52:05.259Z,99.90
2022-08-02T00:54:32.119Z,99.90
2022-08-02T00:56:58.958Z,99.90
2022-08-02T00:59:25.819Z,99.90
2022-08-02T01:01:56.176Z,99.90
2022-08-02T01:04:31.382Z,99.90
2022-08-02T01:07:00.902Z,99.90
2022-08-02T01:09:28.106Z,99.90
2022-08-02T01:11:54.906Z,99.90
2022-08-02T01:14:24.387Z,99.90
2022-08-02T01:17:14.950Z,99.90
2022-08-02T01:19:47.835Z,99.90
2022-08-02T01:22:58.454Z,99.90
2022-08-02T01:25:33.488Z,99.90
2022-08-02T01:28:24.867Z,99.90
2022-08-02T01:30:58.423Z,99.90
2022-08-02T01:33:28.425Z,99.90
2022-08-02T01:35:57.659Z,99.90
2022-08-02T01:38:32.666Z,99.90
2022-08-02T01:41:02.024Z,99.90
2022-08-02T01:43:31.440Z,99.90
2022-08-02T01:46:01.304Z,99.90
2022-08-02T01:48:31.676Z,99.90
2022-08-02T01:51:01.206Z,99.90
2022-08-02T01:53:30.068Z,99.90
2022-08-02T01:55:59.404Z,99.90
2022-08-02T01:58:34.700Z,99.90
2022-08-02T02:01:02.521Z,99.90
2022-08-02T02:03:33.599Z,99.90
2022-08-02T02:06:03.546Z,99.90
2022-08-02T02:08:39.646Z,99.90
2022-08-02T02:12:10.200Z,99.90
2022-08-02T02:13:57.842Z,99.90
2022-08-02T02:16:27.228Z,99.90
2022-08-02T02:18:54.912Z,99.90
2022-08-02T02:21:21.955Z,99.90
2022-08-02T02:23:50.059Z,99.90
2022-08-02T02:26:29.837Z,99.90
2022-08-02T02:29:02.029Z,99.90
2022-08-02T02:31:32.912Z,99.90
2022-08-02T02:34:01.970Z,99.90
2022-08-02T02:36:30.805Z,99.90
2022-08-02T02:39:01.734Z,99.90
2022-08-02T02:41:29.205Z,99.90
2022-08-02T02:43:58.348Z,99.90
2022-08-02T02:46:27.212Z,99.90
2022-08-02T02:48:55.117Z,99.90
2022-08-02T02:51:23.158Z,99.90
2022-08-02T02:54:33.516Z,99.90
2022-08-02T02:56:39.229Z,99.90
2022-08-02T02:59:09.024Z,99.90
2022-08-02T03:01:55.884Z,99.90
2022-08-02T03:04:25.261Z,99.90
2022-08-02T03:06:52.222Z,99.90
2022-08-02T03:09:19.057Z,99.90
2022-08-02T03:11:46.589Z,99.90
2022-08-02T03:14:13.869Z,99.90
2022-08-02T03:16:45.699Z,99.90
2022-08-02T03:19:12.813Z,99.90
2022-08-02T03:21:39.604Z,99.90
2022-08-02T03:24:07.427Z,99.90
2022-08-02T03:26:34.644Z,99.90
2022-08-02T03:29:10.287Z,99.90
2022-08-02T03:31:41.611Z,99.90
2022-08-02T03:34:08.891Z,99.90
2022-08-02T03:36:36.348Z,99.90
2022-08-02T03:39:04.337Z,99.90
2022-08-02T03:41:31.897Z,99.90
2022-08-02T03:43:59.382Z,99.90
2022-08-02T03:46:26.658Z,99.90
2022-08-02T03:48:56.033Z,99.90
2022-08-02T03:51:23.875Z,99.90
2022-08-02T03:53:50.879Z,99.90
2022-08-02T03:56:18.341Z,99.90
2022-08-02T03:58:49.101Z,99.90
2022-08-02T04:01:16.878Z,99.90
2022-08-02T04:03:43.852Z,99.90
2022-08-02T04:06:10.661Z,99.90
2022-08-02T04:08:38.662Z,99.90
2022-08-02T04:11:25.463Z,99.90
2022-08-02T04:13:56.534Z,99.90
2022-08-02T04:16:31.206Z,99.90
2022-08-02T04:19:03.614Z,99.90
2022-08-02T04:21:48.757Z,99.90
2022-08-02T04:24:26.640Z,99.90
2022-08-02T04:27:07.048Z,99.90
2022-08-02T04:29:47.795Z,99.90
2022-08-02T04:32:15.704Z,99.90
2022-08-02T04:34:54.222Z,99.90
2022-08-02T04:37:30.759Z,99.90
2022-08-02T04:39:57.543Z,99.90
2022-08-02T04:42:26.264Z,99.90
2022-08-02T04:44:54.223Z,99.90
2022-08-02T04:47:54.329Z,99.90
2022-08-02T04:50:09.302Z,99.90
2022-08-02T04:52:36.083Z,99.90
2022-08-02T04:55:02.913Z,99.90
2022-08-02T04:57:52.365Z,99.90
2022-08-02T05:00:20.411Z,99.90
2022-08-02T05:02:47.873Z,99.90
2022-08-02T05:05:15.230Z,99.90
2022-08-02T05:07:42.603Z,99.90
2022-08-02T05:10:09.743Z,99.90
2022-08-02T05:12:39.067Z,99.90
2022-08-02T05:15:06.581Z,99.90
2022-08-02T05:17:36.543Z,99.90
2022-08-02T05:20:06.874Z,99.90
2022-08-02T05:22:33.703Z,99.90
2022-08-02T05:25:00.435Z,99.90
2022-08-02T05:27:27.328Z,99.90
2022-08-02T05:29:55.865Z,99.90
2022-08-02T05:32:25.207Z,99.90
2022-08-02T05:34:53.319Z,99.90
2022-08-02T05:37:20.092Z,99.90
2022-08-02T05:39:55.885Z,99.90
2022-08-02T05:42:23.973Z,99.90
2022-08-02T05:44:51.009Z,99.90
2022-08-02T05:47:17.848Z,99.90
2022-08-02T05:49:45.010Z,99.90
2022-08-02T05:52:12.199Z,99.90
2022-08-02T05:54:39.586Z,99.90
2022-08-02T05:57:17.762Z,99.90
2022-08-02T06:00:02.846Z,99.90
2022-08-02T06:02:57.614Z,99.90
2022-08-02T06:05:27.098Z,99.90
2022-08-02T06:07:58.153Z,99.90
2022-08-02T06:10:27.385Z,99.90
2022-08-02T06:13:14.401Z,99.90
2022-08-02T06:15:53.206Z,99.90
2022-08-02T06:18:28.629Z,99.90
2022-08-02T06:21:03.784Z,99.90
2022-08-02T06:23:58.012Z,99.90
2022-08-02T06:26:27.913Z,99.90
2022-08-02T06:28:57.040Z,99.90
2022-08-02T06:31:24.009Z,99.90
2022-08-02T06:33:50.869Z,99.90
2022-08-02T06:36:37.480Z,99.90
2022-08-02T06:39:28.045Z,99.90
2022-08-02T06:42:01.899Z,99.90
2022-08-02T06:44:49.985Z,99.90
2022-08-02T06:47:18.726Z,99.90
2022-08-02T06:49:52.458Z,99.90
2022-08-02T06:52:31.118Z,99.90
2022-08-02T06:55:03.291Z,99.90
2022-08-02T06:57:30.975Z,99.90
2022-08-02T06:59:58.517Z,99.90
2022-08-02T07:02:25.566Z,99.90
2022-08-02T07:04:52.534Z,99.90
2022-08-02T07:07:19.880Z,99.90
2022-08-02T07:09:57.266Z,99.90
2022-08-02T07:12:30.227Z,99.90
2022-08-02T07:14:57.724Z,99.90
2022-08-02T07:17:24.526Z,99.90
2022-08-02T07:19:51.355Z,99.90
2022-08-02T07:22:20.138Z,99.90
2022-08-02T07:24:46.966Z,99.90
2022-08-02T07:27:13.994Z,99.90
2022-08-02T07:29:46.517Z,99.90
2022-08-02T07:32:16.266Z,99.90
2022-08-02T07:34:43.960Z,99.90
2022-08-02T07:37:35.910Z,99.90
2022-08-02T07:40:12.339Z,99.90
2022-08-02T07:42:44.289Z,99.90
2022-08-02T07:45:12.514Z,99.90
2022-08-02T07:47:44.600Z,99.90
2022-08-02T07:50:12.687Z,99.90
2022-08-02T07:52:41.094Z,99.90
2022-08-02T07:55:09.470Z,99.90
2022-08-02T07:57:37.730Z,99.90
2022-08-02T08:00:09.620Z,99.90
2022-08-02T08:02:39.449Z,99.90
2022-08-02T08:05:07.098Z,99.90
2022-08-02T08:07:34.986Z,99.90
2022-08-02T08:10:02.292Z,99.90
2022-08-02T08:12:29.173Z,99.90
2022-08-02T08:14:55.952Z,99.90
2022-08-02T08:17:23.028Z,99.60
2022-08-02T08:19:51.268Z,96.90
2022-08-02T08:22:22.791Z,94.60
2022-08-02T08:24:50.390Z,92.60
2022-08-02T08:27:18.481Z,92.50
2022-08-02T08:29:45.948Z,91.90
2022-08-02T08:32:17.757Z,91.80
2022-08-02T08:34:49.085Z,91.90
2022-08-02T08:37:17.633Z,91.00
2022-08-02T08:39:57.341Z,91.00
2022-08-02T08:42:28.523Z,90.60
2022-08-02T08:44:56.564Z,90.30
2022-08-02T08:47:33.938Z,89.80
2022-08-02T08:50:06.055Z,90.00
2022-08-02T08:52:39.889Z,89.90
2022-08-02T08:55:09.694Z,89.70
2022-08-02T08:57:40.940Z,90.30
2022-08-02T09:00:09.101Z,90.10
2022-08-02T09:02:36.926Z,90.20
2022-08-02T09:05:03.978Z,88.40
2022-08-02T09:07:30.801Z,86.50
2022-08-02T09:09:57.584Z,86.90
2022-08-02T09:12:25.139Z,88.90
2022-08-02T09:14:52.025Z,89.90
2022-08-02T09:17:21.896Z,87.10
2022-08-02T09:20:06.843Z,81.80
2022-08-02T09:22:33.876Z,82.30
2022-08-02T09:25:01.243Z,81.60
2022-08-02T09:27:35.265Z,81.90
2022-08-02T09:30:12.356Z,78.70
2022-08-02T09:32:48.386Z,76.70
2022-08-02T09:36:06.746Z,77.20
2022-08-02T09:38:19.057Z,76.90
2022-08-02T09:40:45.863Z,76.20
2022-08-02T09:43:12.686Z,73.80
2022-08-02T09:45:39.647Z,72.30
2022-08-02T09:48:10.043Z,70.90
2022-08-02T09:50:38.335Z,69.40
2022-08-02T09:53:05.564Z,70.30
2022-08-02T09:55:32.528Z,70.10
2022-08-02T09:58:16.278Z,70.90
2022-08-02T10:00:56.192Z,71.90
2022-08-02T10:03:23.139Z,71.30
2022-08-02T10:06:03.146Z,68.80
2022-08-02T10:08:33.046Z,70.60
2022-08-02T10:11:01.287Z,70.60
2022-08-02T10:13:34.642Z,71.10
2022-08-02T10:16:03.328Z,71.10
2022-08-02T10:18:39.965Z,67.30
2022-08-02T10:21:14.350Z,66.30
2022-08-02T10:23:43.631Z,65.50
2022-08-02T10:26:15.047Z,66.40
2022-08-02T10:28:44.391Z,65.70
2022-08-02T10:31:13.906Z,66.70
2022-08-02T10:33:41.653Z,66.60
2022-08-02T10:36:09.129Z,65.20
2022-08-02T10:38:36.699Z,63.90
2022-08-02T10:41:03.867Z,63.50
2022-08-02T10:43:36.719Z,64.30
2022-08-02T10:46:32.558Z,65.50
2022-08-02T10:49:29.678Z,65.40
2022-08-02T10:52:05.397Z,63.80
2022-08-02T10:54:33.852Z,63.20
2022-08-02T10:57:01.719Z,62.50
2022-08-02T10:59:35.251Z,62.70
2022-08-02T11:02:05.868Z,61.70
2022-08-02T11:04:41.649Z,61.90
2022-08-02T11:07:16.845Z,61.60
2022-08-02T11:09:48.610Z,61.60
2022-08-02T11:12:20.931Z,62.00
2022-08-02T11:15:04.167Z,60.00
2022-08-02T11:18:06.985Z,59.60
2022-08-02T11:20:34.412Z,60.10
2022-08-02T11:23:44.782Z,59.40
2022-08-02T11:26:31.011Z,59.20
2022-08-02T11:28:59.968Z,58.80
2022-08-02T11:31:27.656Z,57.70
2022-08-02T11:33:54.720Z,56.10
2022-08-02T11:36:23.006Z,56.10
2022-08-02T11:38:50.055Z,56.30
2022-08-02T11:41:46.880Z,56.70
2022-08-02T11:44:07.551Z,57.20
2022-08-02T11:46:34.667Z,56.80
2022-08-02T11:49:18.477Z,56.30
2022-08-02T11:51:56.323Z,55.80
2022-08-02T11:54:31.417Z,55.60
2022-08-02T11:57:21.000Z,55.60
2022-08-02T11:59:54.129Z,55.00
2022-08-02T12:02:26.502Z,55.10
2022-08-02T12:05:04.334Z,55.00
2022-08-02T12:07:46.180Z,55.60
2022-08-02T12:10:24.270Z,55.10
2022-08-02T12:12:59.846Z,54.90
2022-08-02T12:15:45.362Z,55.30
2022-08-02T12:18:37.298Z,55.40
2022-08-02T12:21:19.931Z,54.60
2022-08-02T12:23:59.702Z,52.90
2022-08-02T12:26:28.556Z,51.00
2022-08-02T12:28:59.820Z,50.80
2022-08-02T12:31:56.413Z,50.00
2022-08-02T12:34:31.171Z,50.10
2022-08-02T12:37:09.427Z,49.10
2022-08-02T12:39:36.258Z,48.40
2022-08-02T12:42:03.973Z,48.10
2022-08-02T12:44:30.797Z,48.50
2022-08-02T12:47:11.728Z,48.10
2022-08-02T12:49:38.723Z,47.70
2022-08-02T12:52:24.339Z,45.50
2022-08-02T12:54:51.194Z,45.60
2022-08-02T12:57:19.689Z,44.80
2022-08-02T12:59:52.673Z,44.00
2022-08-02T13:02:20.413Z,43.60
2022-08-02T13:04:49.978Z,43.00
2022-08-02T13:07:18.751Z,42.70
2022-08-02T13:09:46.749Z,40.30
2022-08-02T13:12:13.924Z,39.10
2022-08-02T13:14:42.597Z,39.20
2022-08-02T13:17:12.495Z,38.60
2022-08-02T13:19:40.792Z,38.70
2022-08-02T13:22:08.610Z,37.10
2022-08-02T13:24:55.331Z,38.20
2022-08-02T13:27:28.576Z,38.90
2022-08-02T13:29:56.930Z,39.00
2022-08-02T13:32:25.164Z,38.50
2022-08-02T13:34:52.320Z,40.00
2022-08-02T13:37:19.244Z,38.80
2022-08-02T13:40:00.518Z,39.00
2022-08-02T13:42:33.323Z,37.50
2022-08-02T13:45:00.157Z,37.80
2022-08-02T13:48:03.784Z,36.70
2022-08-02T13:50:30.833Z,36.80
2022-08-02T13:52:57.685Z,36.20
2022-08-02T13:55:24.491Z,36.90
2022-08-02T13:57:53.306Z,35.60
2022-08-02T14:00:35.615Z,36.00
2022-08-02T14:03:04.509Z,35.50
2022-08-02T14:05:46.809Z,34.50
2022-08-02T14:08:19.125Z,34.50
2022-08-02T14:10:50.820Z,35.10
2022-08-02T14:13:18.101Z,36.30
2022-08-02T14:15:46.089Z,34.60
2022-08-02T14:18:13.832Z,35.00
2022-08-02T14:20:40.897Z,35.00
2022-08-02T14:23:07.846Z,34.50
2022-08-02T14:25:34.891Z,35.20
2022-08-02T14:28:02.292Z,35.00
2022-08-02T14:30:29.196Z,34.40
2022-08-02T14:32:56.596Z,33.90
2022-08-02T14:35:23.488Z,34.10
2022-08-02T14:37:50.266Z,34.40
2022-08-02T14:40:28.254Z,34.40
2022-08-02T14:43:00.186Z,34.30
2022-08-02T14:45:40.096Z,34.70
2022-08-02T14:48:08.853Z,34.70
2022-08-02T14:50:35.627Z,34.20
2022-08-02T14:53:02.535Z,34.40
2022-08-02T14:55:29.326Z,34.60
2022-08-02T14:57:56.123Z,34.40
2022-08-02T15:00:22.953Z,34.60
2022-08-02T15:02:49.713Z,34.80
2022-08-02T15:05:16.474Z,35.40
2022-08-02T15:07:47.807Z,35.40
2022-08-02T15:10:16.351Z,35.10
2022-08-02T15:12:45.665Z,35.00
2022-08-02T15:15:12.528Z,35.40
2022-08-02T15:17:39.369Z,35.40
2022-08-02T15:20:24.633Z,35.90
2022-08-02T15:22:52.732Z,35.80
2022-08-02T15:25:19.873Z,36.30
2022-08-02T15:27:46.742Z,36.70
2022-08-02T15:30:13.813Z,36.60
2022-08-02T15:32:40.626Z,36.90
2022-08-02T15:35:20.508Z,36.10
2022-08-02T15:37:47.322Z,36.40
2022-08-02T15:40:14.104Z,36.40
2022-08-02T15:42:40.918Z,36.90
2022-08-02T15:45:08.192Z,36.00
2022-08-02T15:47:50.326Z,35.90
2022-08-02T15:50:18.699Z,35.30
2022-08-02T15:52:45.583Z,35.90
2022-08-02T15:55:12.652Z,35.60
2022-08-02T15:57:39.456Z,36.20
2022-08-02T16:00:07.461Z,35.30
2022-08-02T16:02:45.017Z,34.50
2022-08-02T16:05:14.459Z,35.20
2022-08-02T16:07:41.368Z,35.10
2022-08-02T16:10:09.051Z,34.60
2022-08-02T16:12:35.817Z,34.70
2022-08-02T16:15:02.731Z,35.00
2022-08-02T16:17:49.374Z,34.80
2022-08-02T16:20:16.365Z,35.10
2022-08-02T16:22:43.109Z,34.70
2022-08-02T16:25:10.757Z,35.30
2022-08-02T16:27:59.384Z,35.30
2022-08-02T16:30:31.135Z,35.10
2022-08-02T16:32:57.917Z,35.60
2022-08-02T16:35:24.669Z,35.30
2022-08-02T16:37:52.661Z,35.20
2022-08-02T16:40:21.118Z,35.40
2022-08-02T16:42:50.205Z,35.30
2022-08-02T16:45:20.028Z,35.40
2022-08-02T16:47:55.974Z,35.20
2022-08-02T16:50:28.029Z,35.00
2022-08-02T16:52:57.811Z,35.00
2022-08-02T16:55:24.805Z,34.80
2022-08-02T16:57:51.716Z,35.20
2022-08-02T17:00:23.870Z,35.50
2022-08-02T17:02:50.718Z,35.60
2022-08-02T17:05:17.656Z,35.60
2022-08-02T17:08:08.662Z,35.80
2022-08-02T17:10:36.193Z,35.90
2022-08-02T17:13:11.067Z,35.80
2022-08-02T17:18:27.393Z,36.20
2022-08-02T17:20:54.738Z,36.00
2022-08-02T17:23:21.543Z,36.00
2022-08-02T17:25:52.288Z,36.00
2022-08-02T17:28:19.722Z,36.10
2022-08-02T17:30:46.596Z,36.20
2022-08-02T17:33:13.417Z,36.50
2022-08-02T17:35:51.944Z,36.50
2022-08-02T17:38:26.643Z,36.50
2022-08-02T17:40:57.400Z,36.60
2022-08-02T17:46:12.332Z,36.60
2022-08-02T17:48:58.109Z,36.40
2022-08-02T17:51:32.992Z,36.40
2022-08-02T17:54:13.206Z,36.40
2022-08-02T17:56:42.637Z,36.30
2022-08-02T17:59:20.984Z,36.30
2022-08-02T18:01:53.119Z,36.50
2022-08-02T18:04:27.685Z,36.80
2022-08-02T18:07:04.058Z,36.60
2022-08-02T18:09:31.960Z,36.70
2022-08-02T18:11:59.052Z,36.60
2022-08-02T18:14:26.562Z,36.90
2022-08-02T18:16:53.465Z,37.00
2022-08-02T18:19:20.385Z,37.20
2022-08-02T18:21:48.386Z,37.70
2022-08-02T18:24:16.262Z,37.60
2022-08-02T18:26:43.727Z,37.70
2022-08-02T18:29:12.188Z,38.00
2022-08-02T18:31:40.223Z,38.40
2022-08-02T18:34:24.033Z,39.30
2022-08-02T18:36:51.211Z,40.10
2022-08-02T18:39:18.035Z,40.70
2022-08-02T18:41:45.005Z,41.10
2022-08-02T18:44:16.494Z,41.60
2022-08-02T18:46:44.054Z,41.80
2022-08-02T18:49:14.753Z,42.10
2022-08-02T18:51:43.014Z,42.30
2022-08-02T18:54:09.992Z,42.70
2022-08-02T18:56:38.880Z,43.10
2022-08-02T18:59:05.830Z,43.30
2022-08-02T19:01:39.529Z,43.80
2022-08-02T19:04:13.586Z,44.20
2022-08-02T19:06:40.453Z,44.80
2022-08-02T19:09:12.793Z,45.00
2022-08-02T19:11:48.220Z,45.30
2022-08-02T19:14:24.195Z,45.90
2022-08-02T19:17:00.352Z,46.30
2022-08-02T19:19:44.061Z,46.70
2022-08-02T19:22:18.752Z,47.00
2022-08-02T19:24:47.811Z,47.40
2022-08-02T19:27:15.460Z,47.70
2022-08-02T19:29:48.728Z,48.30
2022-08-02T19:32:40.153Z,48.60
2022-08-02T19:35:19.504Z,49.10
2022-08-02T19:37:52.562Z,49.50
2022-08-02T19:40:23.979Z,49.80
2022-08-02T19:44:23.586Z,50.10
2022-08-02T19:45:50.295Z,50.40
2022-08-02T19:48:26.792Z,50.90
2022-08-02T19:50:56.101Z,52.50
2022-08-02T19:53:28.477Z,51.80
2022-08-02T19:55:59.804Z,52.00
2022-08-02T19:58:30.302Z,52.40
2022-08-02T20:00:58.262Z,52.80
2022-08-02T20:03:47.751Z,53.10
2022-08-02T20:06:13.781Z,53.70
2022-08-02T20:08:52.775Z,53.80
2022-08-02T20:11:20.125Z,54.20
2022-08-02T20:13:50.423Z,54.70
2022-08-02T20:16:27.351Z,54.80
2022-08-02T20:18:55.940Z,55.20
2022-08-02T20:21:35.871Z,55.40
2022-08-02T20:24:09.281Z,55.90
2022-08-02T20:26:39.736Z,56.10
2022-08-02T20:29:14.869Z,56.60
2022-08-02T20:31:44.608Z,57.00
2022-08-02T20:34:11.392Z,57.30
2022-08-02T20:36:39.506Z,57.70
2022-08-02T20:39:06.468Z,58.40
2022-08-02T20:41:36.945Z,58.70
2022-08-02T20:44:16.057Z,59.30
2022-08-02T20:46:59.270Z,59.80
2022-08-02T20:49:40.976Z,60.30
2022-08-02T20:52:23.859Z,60.60
2022-08-02T20:54:52.740Z,60.70
2022-08-02T20:57:20.602Z,60.90
2022-08-02T21:00:08.669Z,61.10
2022-08-02T21:02:35.478Z,61.20
2022-08-02T21:05:07.893Z,61.20
2022-08-02T21:07:42.268Z,61.10
2022-08-02T21:10:14.759Z,60.90
2022-08-02T21:12:41.620Z,61.00
2022-08-02T21:18:02.426Z,60.50
2022-08-02T21:20:32.964Z,60.90
2022-08-02T21:22:59.909Z,61.00
2022-08-02T21:25:50.793Z,61.50
2022-08-02T21:28:17.679Z,61.90
2022-08-02T21:30:45.302Z,62.30
2022-08-02T21:33:18.132Z,62.50
2022-08-02T21:35:54.547Z,62.90
2022-08-02T21:41:11.310Z,63.60
2022-08-02T21:43:40.286Z,63.90
2022-08-02T21:46:10.835Z,64.20
2022-08-02T21:48:41.696Z,64.50
2022-08-02T21:51:08.523Z,64.20
2022-08-02T21:53:43.307Z,64.60
2022-08-02T21:56:30.122Z,64.30
2022-08-02T21:58:59.134Z,64.00
2022-08-02T22:01:27.277Z,63.80
2022-08-02T22:03:58.436Z,63.60
2022-08-02T22:06:25.886Z,63.50
2022-08-02T22:08:54.269Z,63.70
2022-08-02T22:11:21.896Z,63.90
2022-08-02T22:13:48.834Z,64.10
2022-08-02T22:16:18.470Z,64.60
2022-08-02T22:18:49.386Z,64.80
2022-08-02T22:21:19.747Z,64.90
2022-08-02T22:23:51.198Z,65.00
2022-08-02T22:26:19.139Z,65.20
2022-08-02T22:28:52.896Z,65.30
2022-08-02T22:31:40.681Z,65.80
2022-08-02T22:34:26.551Z,66.00
2022-08-02T22:36:56.571Z,66.40
2022-08-02T22:39:23.353Z,66.50
2022-08-02T22:42:05.223Z,66.60
2022-08-02T22:44:34.840Z,66.50
2022-08-02T22:47:06.768Z,66.50
2022-08-02T22:49:38.434Z,66.50
2022-08-02T22:52:11.131Z,66.60
2022-08-02T22:54:38.056Z,66.80
2022-08-02T22:57:06.492Z,67.00
2022-08-02T22:58:37.744Z,36.10
2022-08-02T22:58:49.252Z,36.80
2022-08-02T22:59:10.496Z,63.40
2022-08-02T22:59:11.916Z,60.90
2022-08-02T22:59:35.978Z,67.30
2022-08-02T23:02:07.371Z,67.50
2022-08-02T23:04:34.301Z,67.50
2022-08-02T23:07:01.157Z,67.60
2022-08-02T23:09:28.309Z,67.80
2022-08-02T23:11:55.159Z,67.80
2022-08-02T23:14:22.008Z,68.00
2022-08-02T23:17:07.324Z,68.30
2022-08-02T23:19:52.283Z,68.80
2022-08-02T23:22:24.203Z,68.90
2022-08-02T23:24:57.826Z,68.90
2022-08-02T23:27:25.172Z,69.00
2022-08-02T23:29:51.946Z,68.90
2022-08-02T23:32:18.955Z,68.80
2022-08-02T23:34:52.447Z,68.90
2022-08-02T23:37:19.229Z,68.90
2022-08-02T23:39:46.567Z,69.20
2022-08-02T23:42:13.519Z,69.60
2022-08-02T23:44:40.677Z,69.50
2022-08-02T23:47:07.867Z,69.60
2022-08-02T23:49:34.801Z,70.70
2022-08-02T23:52:02.251Z,69.70
2022-08-02T23:54:29.175Z,69.80
2022-08-02T23:56:56.266Z,69.80
2022-08-02T23:59:23.200Z,69.90
